Time;durP1;ratioP1;P1;durP2;ratioP2;P2;SDS_P1;SDS_P2;PMS_P1;PMS_P2;Temp;Humidity;BMP_temperature;BMP_pressure;BME280_temperature;BME280_humidity;BME280_pressure;Samples;Min_cycle;Max_cycle;Signal;HPM_P1;HPM_P2
2023/05/08 00:00:13;;;;;;;;;11.67;10.67;23.00;43.30;;;;;;111531;1238;55538;-76
2023/05/08 00:03:00;;;;;;;;;11.75;10.75;23.00;42.70;;;;;;111649;1241;54750;-78
2023/05/08 00:05:27;;;;;;;;;10.25;9.00;23.00;42.70;;;;;;111955;1237;49830;-76
2023/05/08 00:08:00;;;;;;;;;11.50;10.50;23.00;42.70;;;;;;111642;1241;49365;-76
2023/05/08 00:10:27;;;;;;;;;11.00;10.00;23.00;42.70;;;;;;111636;1237;46372;-77
2023/05/08 00:12:55;;;;;;;;;11.00;10.00;23.00;42.70;;;;;;111688;1239;56529;-77
2023/05/08 00:15:22;;;;;;;;;10.50;9.25;23.00;42.70;;;;;;111609;1238;54186;-76
2023/05/08 00:17:49;;;;;;;;;13.50;10.75;23.00;42.70;;;;;;111579;1238;50577;-77
2023/05/08 00:20:16;;;;;;;;;10.50;9.00;23.00;42.70;;;;;;111545;1241;49746;-76
2023/05/08 00:22:43;;;;;;;;;12.33;11.00;23.00;42.80;;;;;;111516;1241;45812;-78
2023/05/08 00:25:10;;;;;;;;;10.75;9.75;22.90;42.70;;;;;;111887;1239;55928;-75
2023/05/08 00:27:37;;;;;;;;;10.50;8.75;22.90;42.80;;;;;;111593;1239;53591;-77
2023/05/08 00:30:06;;;;;;;;;11.00;10.00;22.90;42.70;;;;;;111704;1239;49355;-77
2023/05/08 00:32:34;;;;;;;;;12.00;10.75;22.90;42.70;;;;;;111557;1238;49320;-77
2023/05/08 00:35:01;;;;;;;;;12.50;11.25;22.90;42.80;;;;;;111503;1238;45558;-77
2023/05/08 00:37:28;;;;;;;;;11.75;10.75;22.90;42.90;;;;;;111575;1241;56226;-76
2023/05/08 00:39:55;;;;;;;;;11.00;9.50;22.90;42.80;;;;;;111537;1239;54410;-73
2023/05/08 00:42:22;;;;;;;;;11.00;10.00;22.90;42.80;;;;;;111666;1237;49244;-74
2023/05/08 00:44:50;;;;;;;;;11.00;9.00;22.80;42.80;;;;;;111811;1240;49061;-75
2023/05/08 00:47:17;;;;;;;;;11.00;10.00;22.80;42.90;;;;;;111503;1238;45410;-74
2023/05/08 00:49:44;;;;;;;;;10.33;9.00;22.80;43.00;;;;;;111674;1241;56658;-76
2023/05/08 00:52:12;;;;;;;;;11.75;10.75;22.80;42.80;;;;;;111688;1240;53414;-76
2023/05/08 00:54:39;;;;;;;;;12.00;11.00;22.80;42.80;;;;;;111930;1238;50590;-76
2023/05/08 00:57:06;;;;;;;;;11.00;10.00;22.80;42.90;;;;;;111499;1243;49800;-74
2023/05/08 00:59:35;;;;;;;;;12.00;11.00;22.80;42.90;;;;;;111658;1237;45676;-73
2023/05/08 01:02:03;;;;;;;;;13.75;10.75;22.80;42.80;;;;;;111751;1237;56343;-74
2023/05/08 01:04:30;;;;;;;;;11.00;10.00;22.80;42.80;;;;;;111547;1242;54125;-73
2023/05/08 01:06:58;;;;;;;;;13.00;12.00;22.80;42.80;;;;;;111398;1238;49284;-74
2023/05/08 01:09:25;;;;;;;;;11.25;10.25;22.80;42.80;;;;;;111574;1242;50935;-74
2023/05/08 01:12:15;;;;;;;;;14.00;11.00;22.80;42.80;;;;;;111657;1245;45591;-74
2023/05/08 01:15:07;;;;;;;;;9.00;8.00;22.80;42.90;;;;;;111579;1237;55888;-75
2023/05/08 01:17:45;;;;;;;;;12.00;9.25;22.80;42.90;;;;;;111367;1242;53684;-76
2023/05/08 01:20:28;;;;;;;;;12.75;11.50;22.80;42.80;;;;;;111548;1239;49395;-73
2023/05/08 01:23:19;;;;;;;;;10.50;8.75;22.80;42.90;;;;;;111521;1241;48991;-77
2023/05/08 01:26:24;;;;;;;;;10.75;9.50;22.80;42.90;;;;;;111343;1238;45964;-78
2023/05/08 01:29:23;;;;;;;;;13.75;10.00;22.80;42.70;;;;;;111328;1237;55614;-77
2023/05/08 01:32:09;;;;;;;;;12.00;10.75;22.80;42.70;;;;;;111702;1237;53541;-76
2023/05/08 01:35:03;;;;;;;;;13.33;10.67;22.80;42.70;;;;;;111538;1238;49698;-77
2023/05/08 01:37:49;;;;;;;;;12.25;10.00;22.80;42.80;;;;;;112111;1242;48991;-78
2023/05/08 01:40:24;;;;;;;;;12.75;11.50;22.80;42.70;;;;;;112237;1238;46470;-76
2023/05/08 01:43:13;;;;;;;;;11.75;10.75;22.90;42.60;;;;;;111833;1238;55215;-77
2023/05/08 01:45:45;;;;;;;;;12.75;11.25;23.00;42.80;;;;;;111853;1239;54945;-77
2023/05/08 01:48:19;;;;;;;;;11.00;9.75;23.00;42.50;;;;;;111589;1247;49603;-78
2023/05/08 01:50:48;;;;;;;;;12.00;11.00;23.00;42.50;;;;;;111686;1240;49040;-77
2023/05/08 01:53:59;;;;;;;;;11.75;10.75;22.90;42.40;;;;;;111808;1241;45705;-77
2023/05/08 01:56:28;;;;;;;;;11.33;10.67;22.90;42.50;;;;;;110986;1244;55897;-77
2023/05/08 01:58:57;;;;;;;;;10.00;9.00;22.90;42.50;;;;;;110664;1247;54418;-76
2023/05/08 02:01:25;;;;;;;;;12.00;10.75;22.90;42.20;;;;;;111277;1243;49666;-75
2023/05/08 02:03:53;;;;;;;;;13.00;10.75;22.90;42.60;;;;;;111423;1244;49017;-75
2023/05/08 02:06:21;;;;;;;;;10.75;9.75;22.80;42.60;;;;;;111530;1241;45913;-74
2023/05/08 02:08:49;;;;;;;;;10.00;9.00;22.80;42.60;;;;;;111454;1239;55977;-72
2023/05/08 02:11:17;;;;;;;;;13.00;10.00;22.80;42.70;;;;;;111410;1241;54039;-74
2023/05/08 02:13:46;;;;;;;;;12.00;10.00;22.70;42.80;;;;;;111539;1241;49270;-75
2023/05/08 02:16:14;;;;;;;;;10.33;9.00;22.70;42.90;;;;;;111665;1241;49213;-75
2023/05/08 02:18:46;;;;;;;;;11.00;10.00;22.70;42.70;;;;;;111458;1241;46019;-73
2023/05/08 02:21:14;;;;;;;;;12.75;10.00;22.70;42.80;;;;;;111591;1237;55889;-76
2023/05/08 02:23:42;;;;;;;;;11.75;10.00;22.70;42.80;;;;;;111698;1237;53741;-77
2023/05/08 02:26:12;;;;;;;;;13.67;11.67;22.70;42.80;;;;;;111525;1238;49669;-77
2023/05/08 02:28:40;;;;;;;;;10.00;8.25;22.70;42.80;;;;;;111705;1244;49503;-79
2023/05/08 02:31:08;;;;;;;;;13.00;11.50;22.70;43.00;;;;;;111771;1238;45623;-78
2023/05/08 02:33:37;;;;;;;;;10.25;9.00;22.70;42.80;;;;;;112032;1237;55413;-77
2023/05/08 02:36:05;;;;;;;;;11.25;9.00;22.60;42.70;;;;;;111235;1243;54654;-76
2023/05/08 02:38:33;;;;;;;;;11.00;9.50;22.60;42.70;;;;;;111685;1238;49483;-77
2023/05/08 02:41:02;;;;;;;;;11.67;10.00;22.70;42.70;;;;;;111709;1238;49429;-77
2023/05/08 02:43:29;;;;;;;;;11.00;10.00;22.70;42.70;;;;;;111718;1238;45983;-78
2023/05/08 02:46:14;;;;;;;;;11.75;10.75;22.70;42.80;;;;;;111752;1241;55302;-77
2023/05/08 02:49:26;;;;;;;;;10.75;9.25;22.70;42.90;;;;;;111511;1240;53325;-76
2023/05/08 02:52:16;;;;;;;;;10.75;9.75;22.70;42.90;;;;;;111472;1238;48959;-77
2023/05/08 02:54:54;;;;;;;;;12.75;11.00;22.70;42.90;;;;;;111458;1238;50234;-76
2023/05/08 02:57:41;;;;;;;;;12.00;11.00;22.70;42.70;;;;;;111662;1241;45658;-76
2023/05/08 03:00:19;;;;;;;;;11.67;10.67;22.70;42.20;;;;;;111824;1241;55464;-79
2023/05/08 03:02:52;;;;;;;;;11.00;9.75;22.70;42.80;;;;;;111600;1243;53129;-77
2023/05/08 03:05:26;;;;;;;;;9.50;8.00;22.70;42.60;;;;;;112010;1241;49751;-77
2023/05/08 03:07:55;;;;;;;;;11.00;8.00;22.70;42.60;;;;;;111739;1237;48449;-78
2023/05/08 03:10:27;;;;;;;;;9.00;8.00;22.70;42.60;;;;;;111590;1238;46338;-77
2023/05/08 03:12:56;;;;;;;;;12.25;9.50;22.70;42.60;;;;;;111685;1239;56245;-77
2023/05/08 03:15:25;;;;;;;;;10.25;9.00;22.70;42.70;;;;;;111923;1238;53750;-78
2023/05/08 03:17:56;;;;;;;;;11.75;10.75;22.70;42.70;;;;;;111598;1243;49175;-77
2023/05/08 03:20:25;;;;;;;;;11.00;10.00;22.70;42.60;;;;;;111629;1239;49739;-74
2023/05/08 03:22:53;;;;;;;;;12.50;11.25;22.70;42.60;;;;;;111341;1238;45134;-75
2023/05/08 03:25:20;;;;;;;;;11.00;10.00;22.60;42.60;;;;;;111776;1244;55379;-76
2023/05/08 03:27:48;;;;;;;;;12.33;11.33;22.60;42.60;;;;;;111627;1241;54195;-79
2023/05/08 03:30:15;;;;;;;;;10.75;9.25;22.70;42.70;;;;;;111766;1241;49116;-78
2023/05/08 03:32:45;;;;;;;;;11.50;9.75;22.70;42.70;;;;;;111528;1238;50010;-77
2023/05/08 03:35:13;;;;;;;;;9.75;8.75;22.70;42.70;;;;;;111639;1241;45976;-77
2023/05/08 03:37:41;;;;;;;;;11.00;9.75;22.60;42.80;;;;;;111795;1241;55890;-77
2023/05/08 03:40:08;;;;;;;;;11.67;10.67;22.60;42.60;;;;;;111709;1241;54487;-76
2023/05/08 03:42:36;;;;;;;;;12.25;10.75;22.60;42.60;;;;;;111432;1238;49669;-76
2023/05/08 03:45:04;;;;;;;;;10.75;9.75;22.60;42.70;;;;;;111262;1241;49820;-75
2023/05/08 03:47:32;;;;;;;;;12.25;11.00;22.50;42.60;;;;;;111493;1243;45580;-75
2023/05/08 03:49:59;;;;;;;;;10.75;9.75;22.60;42.70;;;;;;111615;1243;55328;-76
2023/05/08 03:52:26;;;;;;;;;12.50;11.25;22.50;42.70;;;;;;111554;1238;54632;-75
2023/05/08 03:54:53;;;;;;;;;11.00;9.00;22.50;42.70;;;;;;112037;1239;49295;-76
2023/05/08 03:57:22;;;;;;;;;11.75;10.75;22.50;42.90;;;;;;111720;1237;49187;-75
2023/05/08 04:00:12;;;;;;;;;9.75;8.75;22.50;42.90;;;;;;111518;1242;45808;-76
2023/05/08 04:02:53;;;;;;;;;12.00;10.75;22.50;42.70;;;;;;111602;1242;56317;-75
2023/05/08 04:05:24;;;;;;;;;9.00;8.00;22.50;42.70;;;;;;111844;1237;54087;-75
2023/05/08 04:07:55;;;;;;;;;10.50;9.75;22.60;42.70;;;;;;111761;1238;48914;-78
2023/05/08 04:10:31;;;;;;;;;9.50;8.25;22.60;42.60;;;;;;111879;1238;48967;-78
2023/05/08 04:13:05;;;;;;;;;10.00;9.00;22.60;42.60;;;;;;111941;1241;45637;-79
2023/05/08 04:15:35;;;;;;;;;9.75;8.75;22.60;42.60;;;;;;111993;1238;56716;-78
2023/05/08 04:18:08;;;;;;;;;12.00;11.00;22.70;42.70;;;;;;111873;1237;53546;-77
2023/05/08 04:20:38;;;;;;;;;10.00;8.67;22.70;42.60;;;;;;111735;1237;48672;-80
2023/05/08 04:23:06;;;;;;;;;13.75;10.75;22.70;42.50;;;;;;111656;1237;50011;-79
2023/05/08 04:25:35;;;;;;;;;12.00;9.75;22.70;42.50;;;;;;111825;1238;45519;-77
2023/05/08 04:28:03;;;;;;;;;11.00;10.00;22.70;42.80;;;;;;111490;1239;56215;-76
2023/05/08 04:30:30;;;;;;;;;10.50;9.25;22.60;42.40;;;;;;111451;1240;54947;-76
2023/05/08 04:32:58;;;;;;;;;13.00;9.25;22.60;42.50;;;;;;111577;1243;49502;-74
2023/05/08 04:35:25;;;;;;;;;10.00;9.00;22.60;42.50;;;;;;111828;1243;49487;-66
2023/05/08 04:37:52;;;;;;;;;12.75;11.75;22.60;42.60;;;;;;111508;1238;45451;-74
2023/05/08 04:40:19;;;;;;;;;10.00;9.00;22.60;42.60;;;;;;111559;1238;55317;-69
2023/05/08 04:42:46;;;;;;;;;12.75;10.00;22.50;42.80;;;;;;111576;1238;54724;-73
2023/05/08 04:45:13;;;;;;;;;10.00;9.00;22.50;42.70;;;;;;111452;1238;49307;-70
2023/05/08 04:47:40;;;;;;;;;11.00;9.33;22.50;42.70;;;;;;111543;1239;49591;-76
2023/05/08 04:50:07;;;;;;;;;11.00;10.00;22.50;42.80;;;;;;111696;1240;45774;-72
2023/05/08 04:52:35;;;;;;;;;25.25;14.75;22.40;43.20;;;;;;111727;1238;55661;-71
2023/05/08 04:55:02;;;;;;;;;27.75;20.00;22.50;46.40;;;;;;111371;1238;53991;-74
2023/05/08 04:57:29;;;;;;;;;25.50;21.25;22.50;48.70;;;;;;111679;1238;49829;-71
2023/05/08 04:59:55;;;;;;;;;23.25;20.25;22.50;49.40;;;;;;111423;1239;49639;-67
2023/05/08 05:02:25;;;;;;;;;21.50;18.00;22.50;49.40;;;;;;111639;1238;45831;-70
2023/05/08 05:04:52;;;;;;;;;27.75;20.75;22.50;50.20;;;;;;111877;1241;55499;-70
2023/05/08 05:07:19;;;;;;;;;25.00;19.00;22.60;50.60;;;;;;111620;1241;53653;-69
2023/05/08 05:09:46;;;;;;;;;24.50;20.00;22.70;50.50;;;;;;111651;1239;49279;-71
2023/05/08 05:12:13;;;;;;;;;24.00;19.50;22.70;50.30;;;;;;111619;1247;49431;-70
2023/05/08 05:14:40;;;;;;;;;23.00;19.50;22.70;50.60;;;;;;112024;1238;45522;-71
2023/05/08 05:17:07;;;;;;;;;24.00;18.00;22.80;50.70;;;;;;111646;1241;55435;-71
2023/05/08 05:19:34;;;;;;;;;21.25;19.75;22.80;50.70;;;;;;111614;1241;53484;-72
2023/05/08 05:22:01;;;;;;;;;26.00;20.50;22.90;50.80;;;;;;111553;1241;49480;-71
2023/05/08 05:24:27;;;;;;;;;28.75;21.00;23.00;51.10;;;;;;111899;1237;49731;-71
2023/05/08 05:26:54;;;;;;;;;34.50;25.25;23.10;50.90;;;;;;111452;1241;45872;-71
2023/05/08 05:29:21;;;;;;;;;26.00;20.00;23.20;50.70;;;;;;111625;1238;56134;-71
2023/05/08 05:31:48;;;;;;;;;25.75;21.00;23.30;50.50;;;;;;111601;1237;54138;-72
2023/05/08 05:34:15;;;;;;;;;30.67;21.00;23.40;50.50;;;;;;111910;1237;49031;-71
2023/05/08 05:36:42;;;;;;;;;18.00;15.00;23.40;50.50;;;;;;111672;1241;49589;-70
2023/05/08 05:39:09;;;;;;;;;24.00;18.75;23.50;50.10;;;;;;111648;1237;45439;-71
2023/05/08 05:41:36;;;;;;;;;24.75;19.75;23.60;50.10;;;;;;111536;1238;55906;-71
2023/05/08 05:44:03;;;;;;;;;21.75;19.00;23.60;50.00;;;;;;112021;1241;54411;-72
2023/05/08 05:46:33;;;;;;;;;24.00;20.75;23.60;49.90;;;;;;111639;1237;50731;-71
2023/05/08 05:49:00;;;;;;;;;20.00;17.00;23.70;49.80;;;;;;111579;1241;49824;-71
2023/05/08 05:51:27;;;;;;;;;22.25;18.75;23.70;49.60;;;;;;111667;1238;46243;-71
2023/05/08 05:53:54;;;;;;;;;24.00;21.00;23.80;49.70;;;;;;111960;1241;56857;-69
2023/05/08 05:56:22;;;;;;;;;27.75;20.75;23.80;49.90;;;;;;111459;1238;54372;-70
2023/05/08 05:58:49;;;;;;;;;31.50;21.25;23.80;50.30;;;;;;111720;1243;49664;-70
2023/05/08 06:01:16;;;;;;;;;25.00;18.75;23.80;50.20;;;;;;111612;1241;49231;-72
2023/05/08 06:03:43;;;;;;;;;22.25;19.75;23.90;50.30;;;;;;111973;1237;46105;-69
2023/05/08 06:06:10;;;;;;;;;21.00;18.25;23.90;50.10;;;;;;111720;1242;55916;-69
2023/05/08 06:08:37;;;;;;;;;22.50;20.50;24.00;50.30;;;;;;111529;1239;53722;-75
2023/05/08 06:11:04;;;;;;;;;26.75;18.50;24.10;50.10;;;;;;111614;1238;50251;-72
2023/05/08 06:13:30;;;;;;;;;24.50;18.25;24.20;50.00;;;;;;111926;1238;49725;-74
2023/05/08 06:15:57;;;;;;;;;24.50;22.50;24.20;49.90;;;;;;111548;1237;46209;-73
2023/05/08 06:18:25;;;;;;;;;22.75;20.75;24.30;49.80;;;;;;111547;1239;56081;-69
2023/05/08 06:20:56;;;;;;;;;23.67;19.67;24.40;49.70;;;;;;111500;1241;54114;-72
2023/05/08 06:23:24;;;;;;;;;20.50;17.75;24.40;49.50;;;;;;111715;1240;50346;-74
2023/05/08 06:25:51;;;;;;;;;23.75;19.00;24.40;49.30;;;;;;111670;1242;49822;-73
2023/05/08 06:28:19;;;;;;;;;21.75;17.50;24.50;49.50;;;;;;111632;1242;45591;-70
2023/05/08 06:30:45;;;;;;;;;22.00;19.00;24.60;49.40;;;;;;111626;1241;55843;-66
2023/05/08 06:33:12;;;;;;;;;26.67;21.00;24.60;49.20;;;;;;111670;1237;54191;-64
2023/05/08 06:35:39;;;;;;;;;30.75;23.50;24.60;49.00;;;;;;111759;1241;49956;-64
2023/05/08 06:38:06;;;;;;;;;20.75;19.75;24.70;49.10;;;;;;111496;1239;49959;-64
2023/05/08 06:40:33;;;;;;;;;24.00;20.25;24.80;48.90;;;;;;111686;1237;45381;-68
2023/05/08 06:43:00;;;;;;;;;21.25;19.25;24.80;48.80;;;;;;111342;1240;55089;-64
2023/05/08 06:45:27;;;;;;;;;19.25;18.25;24.90;48.70;;;;;;111356;1243;53680;-65
2023/05/08 06:47:54;;;;;;;;;29.75;21.00;24.90;48.70;;;;;;111565;1237;50249;-63
2023/05/08 06:50:21;;;;;;;;;24.50;20.00;24.90;48.50;;;;;;111666;1237;49698;-63
2023/05/08 06:52:48;;;;;;;;;23.00;16.75;24.90;48.20;;;;;;111673;1238;46987;-66
2023/05/08 06:55:15;;;;;;;;;17.50;16.00;24.90;48.00;;;;;;111872;1237;56670;-67
2023/05/08 06:57:42;;;;;;;;;26.75;17.50;25.00;48.40;;;;;;111663;1241;53688;-62
2023/05/08 07:00:10;;;;;;;;;17.50;16.50;25.10;48.30;;;;;;111695;1240;49238;-65
2023/05/08 07:02:37;;;;;;;;;21.50;18.75;25.10;47.70;;;;;;111703;1241;50549;-70
2023/05/08 07:05:05;;;;;;;;;22.00;18.75;25.20;47.70;;;;;;111972;1241;46502;-66
2023/05/08 07:07:32;;;;;;;;;20.00;19.00;25.20;47.50;;;;;;111733;1241;55900;-63
2023/05/08 07:09:59;;;;;;;;;20.75;17.00;25.30;47.80;;;;;;111666;1237;53941;-62
2023/05/08 07:12:26;;;;;;;;;20.00;17.25;25.30;47.10;;;;;;111682;1237;49889;-64
2023/05/08 07:14:52;;;;;;;;;19.33;17.00;25.30;46.90;;;;;;111633;1242;49596;-63
2023/05/08 07:17:19;;;;;;;;;17.25;14.75;25.30;46.80;;;;;;111499;1239;45172;-63
2023/05/08 07:19:50;;;;;;;;;19.00;17.50;25.30;47.30;;;;;;111582;1239;56064;-62
2023/05/08 07:22:17;;;;;;;;;21.75;18.50;25.30;47.40;;;;;;111542;1241;53748;-60
2023/05/08 07:24:44;;;;;;;;;18.00;17.00;25.20;47.20;;;;;;111574;1237;49811;-64
2023/05/08 07:27:13;;;;;;;;;18.67;16.00;25.20;47.10;;;;;;111550;1243;49235;-61
2023/05/08 07:29:41;;;;;;;;;19.33;15.00;25.30;47.00;;;;;;111540;1239;45506;-64
2023/05/08 07:32:09;;;;;;;;;21.00;18.00;25.30;46.90;;;;;;111596;1241;55971;-62
2023/05/08 07:34:36;;;;;;;;;19.25;16.50;25.20;46.90;;;;;;111865;1237;54784;-59
2023/05/08 07:37:02;;;;;;;;;24.25;17.50;25.30;46.90;;;;;;111699;1243;48954;-61
2023/05/08 07:39:30;;;;;;;;;23.00;17.00;25.30;46.80;;;;;;111837;1237;49345;-61
2023/05/08 07:41:57;;;;;;;;;18.00;16.00;25.30;46.50;;;;;;111709;1242;45366;-61
2023/05/08 07:44:24;;;;;;;;;17.75;15.25;25.40;46.60;;;;;;111607;1238;55917;-64
2023/05/08 07:46:51;;;;;;;;;22.00;18.00;25.40;46.50;;;;;;111545;1241;54089;-61
2023/05/08 07:49:18;;;;;;;;;22.50;17.00;25.40;46.40;;;;;;111518;1241;49932;-61
2023/05/08 07:51:45;;;;;;;;;17.25;15.75;25.30;46.20;;;;;;111713;1239;49650;-62
2023/05/08 07:54:11;;;;;;;;;18.67;15.67;25.30;47.10;;;;;;111554;1237;45521;-63
2023/05/08 07:56:38;;;;;;;;;16.00;13.00;25.40;47.20;;;;;;111687;1241;55718;-65
2023/05/08 07:59:05;;;;;;;;;22.00;20.00;25.40;46.60;;;;;;111531;1244;55033;-64
2023/05/08 08:01:33;;;;;;;;;21.00;16.50;25.40;47.00;;;;;;111637;1241;49310;-62
2023/05/08 08:03:59;;;;;;;;;18.00;15.00;25.40;46.90;;;;;;111503;1241;49371;-65
2023/05/08 08:06:27;;;;;;;;;20.00;16.00;25.30;47.10;;;;;;111661;1238;46240;-66
2023/05/08 08:08:54;;;;;;;;;15.00;13.50;25.30;47.20;;;;;;111679;1241;56939;-67
2023/05/08 08:11:21;;;;;;;;;16.75;15.00;25.20;46.90;;;;;;111630;1238;53921;-62
2023/05/08 08:13:48;;;;;;;;;16.50;15.25;25.30;47.00;;;;;;111920;1238;49503;-63
2023/05/08 08:16:15;;;;;;;;;17.00;16.00;25.20;46.90;;;;;;111631;1241;49147;-62
2023/05/08 08:18:42;;;;;;;;;18.00;15.25;25.30;47.10;;;;;;111575;1243;45926;-70
2023/05/08 08:21:09;;;;;;;;;17.25;16.00;25.30;47.00;;;;;;111641;1238;56595;-70
2023/05/08 08:23:36;;;;;;;;;19.33;16.00;25.20;46.80;;;;;;111903;1241;53270;-71
2023/05/08 08:26:03;;;;;;;;;19.25;15.00;25.30;47.10;;;;;;111588;1238;50386;-72
2023/05/08 08:28:30;;;;;;;;;16.33;15.00;25.30;46.80;;;;;;111684;1241;50471;-69
2023/05/08 08:30:57;;;;;;;;;16.50;15.50;25.30;46.40;;;;;;111721;1238;46298;-71
2023/05/08 08:33:27;;;;;;;;;22.75;16.00;25.30;46.50;;;;;;111899;1243;55974;-71
2023/05/08 08:35:54;;;;;;;;;15.50;14.50;25.30;46.30;;;;;;111719;1238;54261;-73
2023/05/08 08:38:21;;;;;;;;;17.75;16.75;25.40;46.40;;;;;;111712;1243;49597;-72
2023/05/08 08:40:48;;;;;;;;;18.50;17.50;25.30;46.50;;;;;;111662;1242;49640;-73
2023/05/08 08:43:15;;;;;;;;;18.50;14.00;25.30;47.00;;;;;;111721;1241;45884;-69
2023/05/08 08:45:42;;;;;;;;;15.00;14.00;25.30;46.50;;;;;;111848;1237;55724;-72
2023/05/08 08:48:11;;;;;;;;;14.75;13.75;25.30;46.40;;;;;;111684;1241;54624;-73
2023/05/08 08:50:43;;;;;;;;;17.00;14.00;25.30;46.20;;;;;;111615;1241;49595;-70
2023/05/08 08:53:16;;;;;;;;;15.00;13.00;25.30;46.40;;;;;;111646;1241;49077;-70
2023/05/08 08:55:45;;;;;;;;;15.00;14.00;25.30;46.30;;;;;;111822;1241;46012;-70
2023/05/08 08:58:24;;;;;;;;;18.00;14.25;25.40;46.70;;;;;;111613;1237;55762;-69
2023/05/08 09:00:53;;;;;;;;;15.00;14.00;25.40;46.20;;;;;;110723;1241;54507;-69
2023/05/08 09:03:20;;;;;;;;;14.00;11.00;25.50;46.30;;;;;;111825;1238;49705;-71
2023/05/08 09:05:48;;;;;;;;;17.67;15.67;25.50;46.20;;;;;;111809;1237;49242;-70
2023/05/08 09:08:17;;;;;;;;;15.25;14.00;25.50;46.10;;;;;;111613;1243;46141;-68
2023/05/08 09:10:45;;;;;;;;;16.25;15.25;25.50;45.90;;;;;;111637;1238;55632;-68
2023/05/08 09:13:12;;;;;;;;;13.67;12.67;25.50;45.90;;;;;;111670;1241;53609;-68
2023/05/08 09:15:39;;;;;;;;;15.00;12.75;25.50;45.90;;;;;;111898;1243;49101;-70
2023/05/08 09:18:06;;;;;;;;;18.00;15.00;25.50;45.90;;;;;;111686;1238;48818;-70
2023/05/08 09:20:33;;;;;;;;;16.00;15.00;25.50;45.90;;;;;;111705;1241;46180;-69
2023/05/08 09:23:03;;;;;;;;;13.00;12.00;25.50;45.70;;;;;;111566;1238;56864;-69
2023/05/08 09:25:43;;;;;;;;;16.00;14.75;25.40;45.60;;;;;;111965;1238;54898;-69
2023/05/08 09:28:18;;;;;;;;;14.75;13.75;25.40;45.60;;;;;;111468;1238;50390;-69
2023/05/08 09:30:56;;;;;;;;;16.67;14.67;25.40;45.60;;;;;;111611;1241;49877;-69
2023/05/08 09:33:25;;;;;;;;;13.75;12.75;25.30;45.50;;;;;;111687;1243;46301;-67
2023/05/08 09:35:55;;;;;;;;;19.67;15.67;25.30;45.50;;;;;;111768;1241;55807;-67
2023/05/08 09:38:38;;;;;;;;;14.00;13.00;25.30;45.60;;;;;;111677;1241;54259;-67
2023/05/08 09:41:10;;;;;;;;;14.75;13.50;25.30;45.40;;;;;;111680;1241;48971;-66
2023/05/08 09:43:37;;;;;;;;;14.50;13.00;25.30;45.40;;;;;;111830;1242;49073;-70
2023/05/08 09:46:21;;;;;;;;;15.50;14.25;25.20;45.40;;;;;;111653;1241;45731;-66
2023/05/08 09:48:49;;;;;;;;;16.67;11.33;25.20;45.50;;;;;;111609;1240;56516;-70
2023/05/08 09:51:16;;;;;;;;;14.00;13.00;25.10;45.60;;;;;;111649;1239;54057;-68
2023/05/08 09:53:43;;;;;;;;;16.00;13.00;25.10;45.70;;;;;;112001;1241;49000;-65
2023/05/08 09:56:10;;;;;;;;;17.25;13.00;25.00;46.20;;;;;;111669;1241;49800;-64
2023/05/08 09:58:42;;;;;;;;;14.50;13.75;25.00;45.70;;;;;;111711;1238;45322;-63
2023/05/08 10:01:28;;;;;;;;;12.00;11.00;25.00;45.80;;;;;;111625;1241;55813;-64
2023/05/08 10:03:55;;;;;;;;;14.00;13.00;25.00;45.90;;;;;;111835;1240;53481;-74
2023/05/08 10:06:22;;;;;;;;;18.67;16.67;25.00;45.90;;;;;;111508;1241;49299;-70
2023/05/08 10:09:13;;;;;;;;;15.75;14.75;24.90;45.70;;;;;;111216;1238;49576;-71
2023/05/08 10:11:50;;;;;;;;;15.33;14.00;24.90;46.10;;;;;;111574;1241;45358;-65
2023/05/08 10:14:18;;;;;;;;;13.00;12.00;25.00;46.10;;;;;;111972;1241;56159;-68
2023/05/08 10:16:51;;;;;;;;;17.75;15.50;25.00;45.90;;;;;;111559;1244;54566;-80
2023/05/08 10:19:21;;;;;;;;;14.75;13.75;25.10;45.80;;;;;;111609;1241;49661;-78
2023/05/08 10:21:49;;;;;;;;;14.75;13.00;25.20;45.30;;;;;;111632;1238;49027;-68
2023/05/08 10:24:25;;;;;;;;;14.00;13.00;25.20;45.40;;;;;;111722;1238;46884;-62
2023/05/08 10:27:13;;;;;;;;;14.75;13.50;25.20;45.80;;;;;;111532;1237;55340;-67
2023/05/08 10:29:54;;;;;;;;;18.25;13.00;25.20;46.10;;;;;;111401;1238;54082;-67
2023/05/08 10:32:22;;;;;;;;;14.50;13.25;25.20;45.70;;;;;;111657;1238;49729;-67
2023/05/08 10:34:53;;;;;;;;;14.00;13.00;25.10;45.60;;;;;;111929;1241;50444;-70
2023/05/08 10:37:20;;;;;;;;;15.50;14.75;25.10;45.90;;;;;;111700;1241;45658;-73
2023/05/08 10:39:47;;;;;;;;;13.75;12.75;25.00;45.80;;;;;;111711;1242;56472;-71
2023/05/08 10:42:14;;;;;;;;;17.67;15.67;25.00;45.80;;;;;;111633;1239;53559;-72
2023/05/08 10:44:41;;;;;;;;;16.33;14.00;25.00;45.80;;;;;;111921;1241;49460;-66
2023/05/08 10:47:29;;;;;;;;;16.75;13.75;25.00;46.00;;;;;;111679;1244;49838;-70
2023/05/08 10:50:19;;;;;;;;;12.50;11.50;24.90;45.80;;;;;;111581;1237;45816;-67
2023/05/08 10:52:52;;;;;;;;;15.25;13.00;24.90;46.00;;;;;;111668;1241;55916;-70
2023/05/08 10:55:38;;;;;;;;;15.00;14.00;24.90;46.20;;;;;;111602;1236;54193;-67
2023/05/08 10:58:16;;;;;;;;;14.00;12.75;24.90;45.90;;;;;;111692;1237;49376;-74
2023/05/08 11:00:51;;;;;;;;;17.50;14.75;24.90;45.70;;;;;;111544;1240;48914;-68
2023/05/08 11:03:21;;;;;;;;;14.00;13.00;24.90;46.10;;;;;;111752;1238;45986;-64
2023/05/08 11:05:51;;;;;;;;;14.75;12.75;24.90;46.00;;;;;;111521;1241;55485;-63
2023/05/08 11:08:22;;;;;;;;;15.00;13.00;24.90;45.60;;;;;;111612;1239;53634;-68
2023/05/08 11:10:58;;;;;;;;;15.00;12.75;25.00;45.80;;;;;;111602;1238;49139;-66
2023/05/08 11:13:32;;;;;;;;;15.50;14.25;25.00;45.60;;;;;;111787;1238;49475;-64
2023/05/08 11:15:59;;;;;;;;;15.25;13.00;25.00;45.80;;;;;;111717;1238;45108;-66
2023/05/08 11:18:27;;;;;;;;;14.25;12.00;24.90;46.00;;;;;;111646;1237;55441;-65
2023/05/08 11:20:56;;;;;;;;;13.00;12.00;24.90;45.90;;;;;;111648;1241;53624;-65
2023/05/08 11:23:27;;;;;;;;;15.00;14.00;24.90;45.90;;;;;;111834;1242;49688;-63
2023/05/08 11:26:04;;;;;;;;;14.00;12.75;24.80;45.90;;;;;;111519;1241;49377;-63
2023/05/08 11:28:40;;;;;;;;;16.25;15.25;24.90;46.10;;;;;;111610;1244;44977;-62
2023/05/08 11:31:07;;;;;;;;;15.00;14.00;24.90;46.00;;;;;;111565;1238;55731;-63
2023/05/08 11:33:36;;;;;;;;;17.33;15.33;24.80;45.80;;;;;;111652;1237;53916;-67
2023/05/08 11:36:06;;;;;;;;;16.50;15.50;24.80;45.80;;;;;;111627;1241;49723;-66
2023/05/08 11:38:35;;;;;;;;;15.50;13.25;24.80;45.80;;;;;;111704;1241;49031;-65
2023/05/08 11:41:24;;;;;;;;;16.75;14.00;24.80;45.90;;;;;;111670;1245;45395;-69
2023/05/08 11:43:58;;;;;;;;;13.75;12.50;24.90;46.00;;;;;;111757;1242;55139;-69
2023/05/08 11:46:35;;;;;;;;;13.50;12.50;24.80;46.20;;;;;;111733;1242;54445;-68
2023/05/08 11:49:02;;;;;;;;;13.75;12.75;24.90;45.90;;;;;;111819;1244;49073;-65
2023/05/08 11:51:32;;;;;;;;;14.00;13.00;24.90;46.00;;;;;;111730;1239;49576;-67
2023/05/08 11:53:59;;;;;;;;;15.50;14.00;24.90;45.50;;;;;;111907;1242;45571;-65
2023/05/08 11:56:26;;;;;;;;;13.00;12.00;25.00;45.80;;;;;;111544;1241;55702;-65
2023/05/08 11:59:08;;;;;;;;;15.00;13.00;25.00;45.60;;;;;;111692;1241;54816;-67
2023/05/08 12:01:35;;;;;;;;;15.67;12.67;24.90;45.60;;;;;;111683;1238;48952;-63
2023/05/08 12:04:07;;;;;;;;;15.50;14.50;25.00;46.00;;;;;;111802;1239;49354;-65
2023/05/08 12:06:39;;;;;;;;;14.00;13.00;24.90;45.90;;;;;;111570;1243;45490;-63
2023/05/08 12:09:17;;;;;;;;;14.50;13.25;24.90;45.90;;;;;;111673;1238;55626;-70
2023/05/08 12:11:44;;;;;;;;;12.00;11.00;24.90;45.60;;;;;;111524;1238;54653;-66
2023/05/08 12:14:12;;;;;;;;;18.00;15.75;24.90;45.60;;;;;;111924;1238;50493;-67
2023/05/08 12:16:39;;;;;;;;;15.50;13.50;24.90;45.80;;;;;;111642;1242;50632;-69
2023/05/08 12:19:11;;;;;;;;;16.25;14.25;24.90;45.90;;;;;;111637;1243;46063;-68
2023/05/08 12:21:46;;;;;;;;;14.00;13.00;24.90;45.90;;;;;;111588;1240;55891;-66
2023/05/08 12:24:15;;;;;;;;;13.67;12.67;24.90;46.00;;;;;;111792;1243;54438;-76
2023/05/08 12:26:43;;;;;;;;;17.00;14.33;24.90;45.90;;;;;;111612;1237;49678;-78
2023/05/08 12:29:10;;;;;;;;;12.00;11.00;24.90;45.60;;;;;;111735;1242;49277;-75
2023/05/08 12:31:37;;;;;;;;;12.50;11.75;25.00;46.20;;;;;;111713;1242;45482;-77
2023/05/08 12:34:05;;;;;;;;;13.25;12.25;25.00;45.70;;;;;;111983;1242;55378;-77